[x] [x]
.:Aeroklub Partizánske:. |  .:Fotogaléria:. |  .:Videogaléria:. |  .:Foto týždňa:. |  .:Kniha návštev:. |  .:Linky:. |  .:Moje konto:.
 MENU [x]

 METEO [x]

 FotoGaléria [x]

 Slnko [x]
LZPT Partizánske
48°37'N 18°20'E
Východ: 6:02 AM
Západ: 7:32 PM
LZIB Bratislava
48°10'N 17°12'E
Východ: 6:07 AM
Západ: 7:36 PM
LZKZ Košice
48°39'N 21°14'E
Východ: 5:50 AM
Západ: 7:20 PM

 Jazyky [x]
Vyberte jazyk rozhrania:

Slovak English German Polish


  SPRÁVY METAR - ČESKÁ REPUBLIKA
Brno-TuřanyLKTB 010700Z 33009KT 9999 FEW007 BKN030 15/13 Q1012 NOSIGdekóduj
ČáslavLKCV 010700Z 31009KT 7000 -RA BKN005 OVC017 14/14 Q1015 NOSIG RMK YLO YLOdekóduj
HolešovLKHO 010800Z VRB03KT CAVOK 23/17 Q1019dekóduj
Hradec Královedekóduj
Karlovy VaryLKKV 010700Z 29007KT 9999 BKN016 11/10 Q1017dekóduj
KunoviceLKKU 010700Z 36012KT 9000 FEW006 BKN010 16/14 Q1011 RMK REG QNH 1010dekóduj
LiberecLKLB 020602Z 16003KT 9999 FEW016 BKN043 M01/M02 Q1016dekóduj
Mariánsky Láznědekóduj
Náměšť nad OslavouLKNA 010700Z 33007KT 7000 -RA SCT005 BKN028 OVC060 13/12 Q1013 NOSIG RMK WHT WHTdekóduj
Ostrava-MošnovLKMT 010700Z 01007KT 7000 OVC005 15/14 Q1012 NOSIGdekóduj
PardubiceLKPD 010700Z 30005KT 4000 -RA BR BKN005 OVC030 14/14 Q1014 NOSIG RMK YLO YLOdekóduj
Praha-KbelyLKKB 010700Z 33006KT 290V020 9999 -RA NSC 13/12 Q1015 NOSIGdekóduj
Praha-RuzyněLKPR 010700Z 32006KT 9999 -RA FEW043 14/12 Q1015 NOSIGdekóduj
PřerovLKPO 010000Z 05005KT CAVOK 04/01 Q1013dekóduj
 FreeFly INFO [x]
COROWA 2009


COROWA 2009


COROWA 2009



 LZPT webcam [x]

 Foto týždňa [x]

 KBO SNA [x]

 Login [x]
Užívateľské meno

Heslo


Ešte nemáš konto? Môžeš si ho vytvoriť. Registrovaný užívateľ má množstvo výhod, napr. posielanie okamžitých správ iným užívateľom, posielanie komentárov s vlastným menom, možnosť pridávať fotografie do galérie...

 Kto je online [x]
Momentálne je online 31 hostí a 0 členov.

Ste anonymný užívateľ. Zaregistrovať sa môžete tu

DETAILY

 Linky [x]

 Počítadlo návštev [x]
Zaznamenali sme
33563515
strán zobrazených od júna 2003

Počet dnešných unikátnych IP adries:
0



www.freefly.sk
Powered by SzMsoft ©2003-2005. Polish translations by Cezary Dąbek. Flying server www.freefly.sk is administrated by maro@freefly.sk - www.artweb.freefly.sk
PHP-Nuke Copyright © 2004 by Francisco Burzi. This is free software, and you may redistribute it under the GPL. PHP-Nuke comes with absolutely no warranty, for details, see the license.